Conroe's Hourly Summary for Tuesday, July 10, 2018
Hour Temp
(f)
RH
(%)
Solar Rad.
(MJ/m2)
Rainfall
(in)
Wind
(mph)
7/10/2018 12:00 AM 72 93 0 0 0.02
7/10/2018 1:00 AM 71 94 0 0 0
7/10/2018 2:00 AM 71 94 0 0 0
7/10/2018 3:00 AM 71 93 0 0 0
7/10/2018 4:00 AM 70 93 0 0 0
7/10/2018 5:00 AM 69 93 0 0 0
7/10/2018 6:00 AM 69 93 0.03 0 0
7/10/2018 7:00 AM 71 86 0.38 0 0.01
7/10/2018 8:00 AM 77 75 1 0 0.21
7/10/2018 9:00 AM 82 68 1.71 0 0.55
7/10/2018 10:00 AM 83 56 2.13 0 1.22
7/10/2018 11:00 AM 85 52 2.62 0 1.06
7/10/2018 12:00 PM 86 47 2.86 0 1.45
7/10/2018 1:00 PM 87 45 2.54 0 1.24
7/10/2018 2:00 PM 87 47 1.9 0 1.54
7/10/2018 3:00 PM 88 45 1.94 0 0.66
7/10/2018 4:00 PM 87 45 0.98 0 0.67
7/10/2018 5:00 PM 87 50 0.95 0.01 0.71
7/10/2018 6:00 PM 87 50 0.82 0 0.85
7/10/2018 7:00 PM 85 56 0.22 0 1.3
7/10/2018 8:00 PM 82 62 0.01 0 0.03
7/10/2018 9:00 PM 80 68 0 0 0.02
7/10/2018 10:00 PM 79 68 0 0 0.09
7/10/2018 11:00 PM 77 73 0 0 0.04
Data Summary 79 68 20.09 0.01 0.49